Time;durP1;ratioP1;P1;durP2;ratioP2;P2;SDS_P1;SDS_P2;PMS_P1;PMS_P2;Temp;Humidity;BMP_temperature;BMP_pressure;BME280_temperature;BME280_humidity;BME280_pressure;Samples;Min_cycle;Max_cycle;Signal;HPM_P1;HPM_P2
2022/05/30 00:00:38;;;;;;;10.73;2.60;;;8.90;99.90;;;;;;4978408;28;93140;-33
2022/05/30 00:03:05;;;;;;;8.27;2.22;;;8.90;99.90;;;;;;4979105;28;94683;-32
2022/05/30 00:05:30;;;;;;;5.65;2.30;;;8.90;99.90;;;;;;4977973;28;95432;-35
2022/05/30 00:07:57;;;;;;;4.68;2.17;;;8.80;99.90;;;;;;4978686;28;92745;-33
2022/05/30 00:10:23;;;;;;;4.75;1.60;;;8.80;99.90;;;;;;4978827;28;93225;-32
2022/05/30 00:12:49;;;;;;;5.57;2.08;;;8.80;99.90;;;;;;4977880;28;93147;-34
2022/05/30 00:15:18;;;;;;;5.60;1.95;;;8.80;99.90;;;;;;4978800;28;94867;-33
2022/05/30 00:17:43;;;;;;;11.35;2.30;;;8.80;99.90;;;;;;4978546;28;92509;-34
2022/05/30 00:20:10;;;;;;;5.72;1.95;;;8.80;99.90;;;;;;4978418;28;93783;-35
2022/05/30 00:22:36;;;;;;;3.63;2.25;;;8.80;99.90;;;;;;4978060;28;95292;-34
2022/05/30 00:25:03;;;;;;;4.57;1.60;;;8.70;99.90;;;;;;4978126;28;95994;-33
2022/05/30 00:27:29;;;;;;;5.32;2.08;;;8.70;99.90;;;;;;4978619;28;93641;-36
2022/05/30 00:29:54;;;;;;;4.78;2.05;;;8.70;99.90;;;;;;4978253;28;94381;-32
2022/05/30 00:32:20;;;;;;;10.07;2.40;;;8.70;99.90;;;;;;4978163;28;95244;-35
2022/05/30 00:34:46;;;;;;;5.05;1.75;;;8.60;99.90;;;;;;4977771;28;94477;-39
2022/05/30 00:37:11;;;;;;;4.85;1.85;;;8.60;99.90;;;;;;4979029;28;92610;-34
2022/05/30 00:39:37;;;;;;;4.82;2.60;;;8.60;99.90;;;;;;4978174;28;93897;-32
2022/05/30 00:42:31;;;;;;;8.18;2.38;;;8.50;99.90;;;;;;4978195;28;94617;-34
2022/05/30 00:44:57;;;;;;;3.03;1.48;;;8.50;99.90;;;;;;4976747;28;93101;-36
2022/05/30 00:47:25;;;;;;;4.22;2.05;;;8.50;99.90;;;;;;4978513;28;94110;-32
2022/05/30 00:49:52;;;;;;;5.40;2.07;;;8.30;99.90;;;;;;4977833;28;94175;-32
2022/05/30 00:52:32;;;;;;;2.70;1.98;;;8.30;99.90;;;;;;5022944;22;94661;-33
2022/05/30 00:55:10;;;;;;;5.88;1.75;;;8.30;99.90;;;;;;4998937;28;93912;-33
2022/05/30 00:57:37;;;;;;;12.63;2.15;;;8.20;99.90;;;;;;4997669;28;94023;-32
2022/05/30 01:00:10;;;;;;;2.42;1.67;;;8.20;99.90;;;;;;4997388;28;92171;-34
2022/05/30 01:02:39;;;;;;;4.53;2.22;;;8.10;99.90;;;;;;4996870;28;97271;-36
2022/05/30 01:07:52;;;;;;;5.82;1.83;;;8.00;99.90;;;;;;4997166;28;93142;-36
2022/05/30 01:10:21;;;;;;;8.77;1.67;;;7.90;99.90;;;;;;4997813;28;94513;-37
2022/05/30 01:12:53;;;;;;;6.10;2.00;;;7.90;99.90;;;;;;4996526;28;96893;-35
2022/05/30 01:15:25;;;;;;;1.52;1.42;;;7.90;99.90;;;;;;4997150;28;95354;-33
2022/05/30 01:17:57;;;;;;;5.07;1.67;;;7.90;99.90;;;;;;4997478;28;93076;-33
2022/05/30 01:20:35;;;;;;;4.32;1.30;;;7.90;99.90;;;;;;4997571;28;93407;-34
2022/05/30 01:23:28;;;;;;;3.20;1.30;;;7.80;99.90;;;;;;4997758;28;94920;-34
2022/05/30 01:26:18;;;;;;;5.00;1.98;;;7.90;99.90;;;;;;4996858;28;94980;-34
2022/05/30 01:28:49;;;;;;;4.05;1.20;;;7.80;99.90;;;;;;4997543;28;94674;-33
2022/05/30 01:31:15;;;;;;;4.45;1.52;;;7.70;99.90;;;;;;4997825;28;93545;-33
2022/05/30 01:33:42;;;;;;;3.35;1.80;;;7.70;99.90;;;;;;4996439;28;94587;-34
2022/05/30 01:36:08;;;;;;;4.50;1.77;;;7.70;99.90;;;;;;4997547;28;94533;-34
2022/05/30 01:38:34;;;;;;;4.15;2.10;;;7.70;99.90;;;;;;4996741;28;94010;-36
2022/05/30 01:41:00;;;;;;;8.73;2.00;;;7.70;99.90;;;;;;4996706;28;93585;-39
2022/05/30 01:43:26;;;;;;;4.70;2.45;;;7.70;99.90;;;;;;4997137;28;94639;-33
2022/05/30 01:45:52;;;;;;;3.78;1.70;;;7.60;99.90;;;;;;4996145;28;95854;-34
2022/05/30 01:48:17;;;;;;;5.97;1.65;;;7.60;99.90;;;;;;4997501;28;92207;-34
2022/05/30 01:50:47;;;;;;;3.97;1.25;;;7.60;99.90;;;;;;4996500;28;94654;-33
2022/05/30 01:53:13;;;;;;;6.32;1.73;;;7.60;99.90;;;;;;4996694;28;96180;-34
2022/05/30 01:55:39;;;;;;;5.80;1.83;;;7.50;99.90;;;;;;4996615;28;94439;-36
2022/05/30 01:58:05;;;;;;;6.35;2.33;;;7.50;99.90;;;;;;4997786;28;93287;-34
2022/05/30 02:00:31;;;;;;;3.53;2.03;;;7.40;99.90;;;;;;4996438;28;92193;-34
2022/05/30 02:02:57;;;;;;;4.28;1.90;;;7.40;99.90;;;;;;4995921;28;96104;-32
2022/05/30 02:05:23;;;;;;;3.15;1.60;;;7.40;99.90;;;;;;4996406;28;95220;-32
2022/05/30 02:07:48;;;;;;;6.68;1.90;;;7.40;99.90;;;;;;4996287;28;93507;-34
2022/05/30 02:10:14;;;;;;;7.75;2.55;;;7.30;99.90;;;;;;4997800;28;94512;-33
2022/05/30 02:12:39;;;;;;;3.00;1.75;;;7.30;99.90;;;;;;4995782;28;94756;-32
2022/05/30 02:15:05;;;;;;;12.23;2.92;;;7.30;99.90;;;;;;4996380;28;94606;-35
2022/05/30 02:17:35;;;;;;;7.30;3.30;;;7.30;99.90;;;;;;4996737;28;93511;-35
2022/05/30 02:20:00;;;;;;;6.25;2.42;;;7.20;99.90;;;;;;4996409;28;92598;-32
2022/05/30 02:22:29;;;;;;;9.35;2.67;;;7.20;99.90;;;;;;4996561;28;93654;-34
2022/05/30 02:24:56;;;;;;;5.13;2.20;;;7.20;99.90;;;;;;4995912;28;94946;-36
2022/05/30 02:27:22;;;;;;;4.15;2.53;;;7.20;99.90;;;;;;4996330;28;93164;-33
2022/05/30 02:29:48;;;;;;;6.60;1.85;;;7.10;99.90;;;;;;4995825;28;93202;-33
2022/05/30 02:32:14;;;;;;;6.78;2.28;;;7.10;99.90;;;;;;4996983;28;93450;-37
2022/05/30 02:37:24;;;;;;;11.02;2.92;;;7.10;99.90;;;;;;4996821;28;94275;-35
2022/05/30 02:39:50;;;;;;;2.80;2.47;;;7.10;99.90;;;;;;4995989;28;94718;-33
2022/05/30 02:42:16;;;;;;;7.97;2.03;;;7.10;99.90;;;;;;4995569;28;95442;-34
2022/05/30 02:44:41;;;;;;;6.55;3.05;;;7.10;99.90;;;;;;4996425;28;94311;-32
2022/05/30 02:47:07;;;;;;;9.00;2.60;;;7.10;99.90;;;;;;4996257;28;94457;-33
2022/05/30 02:49:33;;;;;;;4.60;2.92;;;7.10;99.90;;;;;;4996109;28;94604;-37
2022/05/30 02:51:59;;;;;;;9.52;3.28;;;7.10;99.90;;;;;;4995281;28;95870;-33
2022/05/30 02:54:26;;;;;;;4.20;2.55;;;7.10;99.90;;;;;;4995836;28;95380;-33
2022/05/30 02:56:54;;;;;;;6.03;2.88;;;7.10;99.90;;;;;;4996075;28;92743;-34
2022/05/30 02:59:20;;;;;;;5.82;2.30;;;7.00;99.90;;;;;;4994408;28;92249;-37
2022/05/30 03:01:46;;;;;;;4.47;2.42;;;7.00;99.90;;;;;;4998305;28;95866;-34
2022/05/30 03:04:12;;;;;;;4.85;2.60;;;7.00;99.90;;;;;;4999849;28;94786;-32
2022/05/30 03:06:38;;;;;;;11.07;3.38;;;7.00;99.90;;;;;;4999104;28;94550;-33
2022/05/30 03:09:05;;;;;;;6.05;2.75;;;7.00;99.90;;;;;;5000043;28;94206;-32
2022/05/30 03:11:32;;;;;;;7.47;3.30;;;7.00;99.90;;;;;;4999217;28;95202;-33
2022/05/30 03:13:58;;;;;;;7.88;2.80;;;7.00;99.90;;;;;;4999577;28;94035;-33
2022/05/30 03:16:23;;;;;;;4.00;2.85;;;7.00;99.90;;;;;;4998402;28;93521;-34
2022/05/30 03:18:49;;;;;;;11.55;2.97;;;7.00;99.90;;;;;;4999346;28;93802;-34
2022/05/30 03:21:15;;;;;;;7.10;3.67;;;7.00;99.90;;;;;;4998355;28;94840;-35
2022/05/30 03:23:41;;;;;;;8.52;2.95;;;7.00;99.90;;;;;;4999146;28;94509;-34
2022/05/30 03:26:08;;;;;;;4.43;3.13;;;7.00;99.90;;;;;;4999410;28;92370;-34
2022/05/30 03:28:34;;;;;;;4.30;2.55;;;7.00;99.90;;;;;;4999003;28;93491;-36
2022/05/30 03:31:01;;;;;;;3.38;2.88;;;7.00;99.90;;;;;;4999062;28;94537;-37
2022/05/30 03:33:26;;;;;;;5.82;4.05;;;7.00;99.90;;;;;;4999621;28;94462;-34
2022/05/30 03:35:53;;;;;;;5.80;3.42;;;7.00;99.90;;;;;;4999001;28;92366;-33
2022/05/30 03:38:19;;;;;;;9.70;3.40;;;7.00;99.90;;;;;;4998701;28;93048;-35
2022/05/30 03:40:44;;;;;;;6.15;3.63;;;7.10;99.90;;;;;;4998363;28;97661;-35
2022/05/30 03:43:11;;;;;;;8.27;3.20;;;7.00;99.90;;;;;;4999037;28;95988;-33
2022/05/30 03:45:41;;;;;;;6.63;3.67;;;7.00;99.90;;;;;;4999091;28;93277;-33
2022/05/30 03:48:09;;;;;;;5.28;3.22;;;7.00;99.90;;;;;;4999061;28;94468;-35
2022/05/30 03:50:37;;;;;;;7.75;4.03;;;7.00;99.90;;;;;;4998573;28;94797;-37
2022/05/30 03:53:06;;;;;;;;;;;7.00;99.90;;;;;;4999219;28;94492;-33
2022/05/30 03:55:39;;;;;;;5.95;3.55;;;7.00;99.90;;;;;;5000060;28;92195;-36
2022/05/30 03:58:06;;;;;;;5.65;3.65;;;7.00;99.90;;;;;;4999405;28;94334;-36
2022/05/30 04:00:33;;;;;;;5.45;3.55;;;6.90;99.90;;;;;;4997943;28;96151;-35
2022/05/30 04:03:00;;;;;;;6.70;3.95;;;6.90;99.90;;;;;;4998104;28;95173;-36
2022/05/30 04:05:26;;;;;;;4.85;2.63;;;7.00;99.90;;;;;;4998010;28;93737;-34
2022/05/30 04:07:52;;;;;;;5.28;3.10;;;7.00;99.90;;;;;;4997984;28;94795;-32
2022/05/30 04:10:18;;;;;;;6.75;3.72;;;6.90;99.90;;;;;;4998440;28;93925;-37
2022/05/30 04:12:44;;;;;;;4.57;3.40;;;7.00;99.90;;;;;;4997744;28;94480;-35
2022/05/30 04:15:17;;;;;;;5.45;3.72;;;7.00;99.90;;;;;;4998458;28;93389;-35
2022/05/30 04:17:43;;;;;;;4.88;3.30;;;7.10;99.90;;;;;;4998066;28;93322;-37
2022/05/30 04:20:09;;;;;;;6.35;3.50;;;7.10;99.90;;;;;;4997903;28;94446;-34
2022/05/30 04:22:35;;;;;;;7.35;3.40;;;7.10;99.90;;;;;;4998366;28;94992;-38
2022/05/30 04:25:00;;;;;;;3.53;3.03;;;7.10;99.90;;;;;;4998717;28;94749;-34
2022/05/30 04:27:26;;;;;;;6.18;3.22;;;7.10;99.90;;;;;;4998341;28;94295;-37
2022/05/30 04:29:52;;;;;;;5.32;3.60;;;7.20;99.90;;;;;;4997179;28;96170;-33
2022/05/30 04:32:17;;;;;;;4.20;3.17;;;7.20;99.90;;;;;;4998366;28;95745;-33
2022/05/30 04:34:44;;;;;;;7.93;3.55;;;7.30;99.90;;;;;;4998432;28;94371;-37
2022/05/30 04:37:10;;;;;;;7.90;3.40;;;7.30;99.90;;;;;;4998172;28;93422;-33
2022/05/30 04:39:36;;;;;;;8.95;4.05;;;7.30;99.90;;;;;;4997369;28;94857;-35
2022/05/30 04:42:03;;;;;;;3.45;3.15;;;7.40;99.90;;;;;;4997842;28;94374;-35
2022/05/30 04:44:29;;;;;;;5.30;3.10;;;7.40;99.90;;;;;;4998769;28;93355;-34
2022/05/30 04:46:56;;;;;;;6.63;3.88;;;7.40;99.90;;;;;;4998583;28;92634;-34
2022/05/30 04:49:23;;;;;;;3.58;2.88;;;7.40;99.90;;;;;;4997968;28;94753;-35
2022/05/30 04:51:49;;;;;;;6.22;3.67;;;7.50;99.90;;;;;;4997193;28;95869;-33
2022/05/30 04:54:15;;;;;;;6.95;4.30;;;7.50;99.90;;;;;;4997787;28;95136;-37
2022/05/30 04:56:41;;;;;;;5.82;3.70;;;7.50;99.90;;;;;;4997948;28;92111;-34
2022/05/30 04:59:07;;;;;;;11.40;4.20;;;7.50;99.90;;;;;;4997547;28;96210;-34
2022/05/30 05:01:33;;;;;;;7.55;3.58;;;7.50;99.90;;;;;;4998028;28;94366;-37
2022/05/30 05:03:59;;;;;;;6.40;3.53;;;7.50;99.90;;;;;;4997935;28;93867;-35
2022/05/30 05:06:25;;;;;;;6.57;3.40;;;7.50;99.90;;;;;;4996618;28;94336;-32
2022/05/30 05:08:51;;;;;;;6.97;3.58;;;7.60;99.90;;;;;;4997484;28;94322;-35
2022/05/30 05:11:32;;;;;;;10.32;3.92;;;7.60;99.90;;;;;;4999573;28;94215;-36
2022/05/30 05:13:57;;;;;;;4.82;4.00;;;7.60;99.90;;;;;;4992545;28;92618;-32
2022/05/30 05:16:30;;;;;;;5.47;3.50;;;7.70;99.90;;;;;;4997198;28;92168;-36
2022/05/30 05:18:56;;;;;;;8.10;4.13;;;7.80;99.90;;;;;;4989655;28;95909;-35
2022/05/30 05:21:30;;;;;;;5.78;3.78;;;7.80;99.90;;;;;;4996802;28;94127;-36
2022/05/30 05:23:57;;;;;;;5.78;4.07;;;7.80;99.90;;;;;;4997092;28;93276;-33
2022/05/30 05:26:23;;;;;;;4.38;3.42;;;7.90;99.90;;;;;;4996424;28;94079;-35
2022/05/30 05:28:49;;;;;;;7.25;3.90;;;7.90;99.90;;;;;;4996678;28;94650;-36
2022/05/30 05:31:22;;;;;;;7.93;3.55;;;7.90;99.90;;;;;;4997181;28;94669;-34
2022/05/30 05:33:49;;;;;;;5.68;3.63;;;8.00;99.90;;;;;;4997092;28;92065;-32
2022/05/30 05:36:19;;;;;;;6.55;4.30;;;8.00;99.90;;;;;;4997336;28;92693;-33
2022/05/30 05:38:45;;;;;;;6.93;4.07;;;8.00;99.90;;;;;;4997010;28;94711;-36
2022/05/30 05:41:10;;;;;;;4.95;3.92;;;8.10;99.90;;;;;;4996277;28;94468;-37
2022/05/30 05:43:36;;;;;;;5.72;3.28;;;8.10;99.90;;;;;;4996622;28;95421;-36
2022/05/30 05:46:02;;;;;;;5.78;3.33;;;8.10;99.90;;;;;;4996860;28;93469;-35
2022/05/30 05:48:28;;;;;;;6.78;3.88;;;8.20;99.90;;;;;;4996908;28;94674;-34
2022/05/30 05:50:54;;;;;;;8.18;5.22;;;8.20;99.90;;;;;;4996968;28;94087;-33
2022/05/30 05:53:20;;;;;;;6.55;3.47;;;8.30;99.90;;;;;;4996768;28;93522;-32
2022/05/30 05:55:45;;;;;;;6.85;3.63;;;8.30;99.90;;;;;;4996786;28;94854;-36
2022/05/30 05:58:11;;;;;;;6.35;3.22;;;8.40;99.90;;;;;;4995849;28;95278;-35
2022/05/30 06:00:36;;;;;;;8.13;3.67;;;8.40;99.90;;;;;;4997213;28;92887;-38
2022/05/30 06:03:03;;;;;;;4.30;2.83;;;8.40;99.90;;;;;;4996204;28;94875;-33
2022/05/30 06:05:30;;;;;;;9.27;4.38;;;8.50;99.90;;;;;;4995807;28;93111;-33
2022/05/30 06:07:59;;;;;;;11.50;3.25;;;8.50;99.90;;;;;;4996569;28;96483;-33
2022/05/30 06:10:25;;;;;;;11.30;3.40;;;8.60;99.90;;;;;;4996888;28;95543;-34
2022/05/30 06:12:51;;;;;;;6.65;3.85;;;8.80;99.90;;;;;;4996574;28;93116;-35
2022/05/30 06:15:19;;;;;;;3.40;3.05;;;9.00;99.90;;;;;;4996475;28;94505;-37
2022/05/30 06:17:46;;;;;;;5.55;3.80;;;9.40;99.90;;;;;;4996778;28;94422;-32
2022/05/30 06:20:14;;;;;;;10.00;3.50;;;9.70;99.90;;;;;;4996434;28;95042;-34
2022/05/30 06:22:40;;;;;;;6.65;3.55;;;10.00;99.90;;;;;;4978710;28;92509;-32
2022/05/30 06:25:06;;;;;;;4.25;3.67;;;10.20;99.90;;;;;;4996630;28;93830;-37
2022/05/30 06:27:32;;;;;;;6.95;3.40;;;10.30;99.90;;;;;;4996426;28;95327;-33
2022/05/30 06:29:58;;;;;;;6.85;2.85;;;10.30;99.90;;;;;;4992017;28;95107;-34
2022/05/30 06:32:24;;;;;;;5.50;3.00;;;10.20;99.90;;;;;;4994347;28;95340;-37
2022/05/30 06:34:51;;;;;;;8.43;3.80;;;10.40;99.90;;;;;;4994150;28;93941;-34
2022/05/30 06:37:16;;;;;;;4.18;2.75;;;10.40;99.90;;;;;;4993866;28;93729;-33
2022/05/30 06:39:42;;;;;;;3.35;2.95;;;10.40;99.90;;;;;;4993979;28;94491;-35
2022/05/30 06:42:10;;;;;;;4.80;3.20;;;10.50;99.90;;;;;;4994206;28;94780;-33
2022/05/30 06:44:36;;;;;;;6.13;3.13;;;10.50;99.90;;;;;;4993597;28;92216;-36
2022/05/30 06:47:03;;;;;;;4.63;2.70;;;10.70;99.90;;;;;;4994471;28;94671;-34
2022/05/30 06:49:29;;;;;;;5.95;3.15;;;10.80;99.90;;;;;;4994329;28;94116;-34
2022/05/30 06:51:54;;;;;;;5.97;3.42;;;10.80;99.90;;;;;;4993165;28;92688;-35
2022/05/30 06:54:20;;;;;;;5.95;3.58;;;11.00;99.90;;;;;;4994202;28;93753;-34
2022/05/30 06:59:31;;;;;;;5.72;2.25;;;11.20;99.90;;;;;;4985502;28;95562;-33
2022/05/30 07:01:59;;;;;;;4.55;2.28;;;11.30;99.90;;;;;;4994118;28;93034;-33
2022/05/30 07:04:25;;;;;;;3.83;1.67;;;11.60;99.90;;;;;;4993879;28;93517;-36
2022/05/30 07:06:51;;;;;;;4.13;2.10;;;11.80;99.90;;;;;;4993102;28;94722;-36
2022/05/30 07:09:17;;;;;;;2.38;1.77;;;12.00;99.90;;;;;;4994114;28;93748;-33
2022/05/30 07:11:43;;;;;;;3.53;2.08;;;12.10;99.90;;;;;;4993127;28;93674;-33
2022/05/30 07:14:12;;;;;;;3.50;1.60;;;12.10;99.90;;;;;;4994434;28;93441;-34
2022/05/30 07:16:39;;;;;;;3.35;1.55;;;12.50;99.90;;;;;;4993663;28;94789;-33
2022/05/30 07:19:05;;;;;;;2.53;0.90;;;12.50;99.90;;;;;;4993720;28;96350;-33
2022/05/30 07:21:31;;;;;;;1.92;1.48;;;13.00;99.90;;;;;;4993497;28;94907;-35
2022/05/30 07:23:57;;;;;;;2.40;0.90;;;13.70;99.90;;;;;;4993624;28;95600;-36
2022/05/30 07:26:23;;;;;;;2.13;0.95;;;13.90;99.90;;;;;;4993094;28;94776;-37
2022/05/30 07:28:51;;;;;;;6.50;1.80;;;14.20;99.90;;;;;;4993806;28;94496;-33
2022/05/30 07:31:19;;;;;;;3.08;1.27;;;14.00;99.90;;;;;;4994265;28;93254;-33
2022/05/30 07:33:47;;;;;;;4.78;1.00;;;14.50;99.90;;;;;;4993937;28;93019;-35
2022/05/30 07:36:18;;;;;;;2.33;1.27;;;14.30;99.90;;;;;;4992580;28;94931;-33
2022/05/30 07:38:44;;;;;;;1.10;1.00;;;14.40;99.90;;;;;;4993896;28;94602;-35
2022/05/30 07:41:10;;;;;;;0.70;0.70;;;13.90;99.90;;;;;;4993419;28;93231;-37
2022/05/30 07:43:36;;;;;;;1.20;0.88;;;14.50;99.90;;;;;;4993748;28;93371;-37
2022/05/30 07:46:12;;;;;;;1.15;0.90;;;14.20;99.90;;;;;;4993520;28;95720;-35
2022/05/30 07:48:38;;;;;;;0.75;0.60;;;13.70;99.90;;;;;;4996361;28;95493;-35
2022/05/30 07:51:05;;;;;;;1.25;0.90;;;13.60;99.90;;;;;;4996815;28;92330;-34
2022/05/30 07:53:31;;;;;;;1.30;0.82;;;13.60;99.90;;;;;;4996396;28;94372;-33
2022/05/30 07:55:58;;;;;;;3.13;0.73;;;13.40;99.90;;;;;;4995819;28;94822;-36
2022/05/30 07:58:24;;;;;;;0.70;0.70;;;13.50;99.90;;;;;;4996759;28;94534;-34
2022/05/30 08:00:52;;;;;;;1.33;0.80;;;13.50;99.90;;;;;;4996377;28;94021;-35
2022/05/30 08:03:18;;;;;;;2.15;0.90;;;14.20;99.90;;;;;;4997049;28;94432;-34
2022/05/30 08:05:43;;;;;;;0.95;0.60;;;14.40;99.90;;;;;;4995305;28;94603;-34
2022/05/30 08:08:09;;;;;;;4.68;1.35;;;14.80;99.90;;;;;;4996366;28;94543;-35
2022/05/30 08:10:35;;;;;;;2.38;1.10;;;14.70;99.90;;;;;;4995629;28;95607;-35
2022/05/30 08:13:02;;;;;;;1.58;1.10;;;14.40;99.90;;;;;;4997473;28;93034;-35
2022/05/30 08:15:27;;;;;;;2.15;1.33;;;14.10;99.90;;;;;;4996193;28;94977;-33
2022/05/30 08:17:55;;;;;;;1.40;0.93;;;13.70;99.90;;;;;;4995864;28;94524;-34
2022/05/30 08:20:21;;;;;;;9.68;0.93;;;13.80;99.90;;;;;;4996999;28;95177;-33
2022/05/30 08:22:47;;;;;;;0.95;0.80;;;13.50;99.90;;;;;;4996304;28;92546;-35
2022/05/30 08:25:15;;;;;;;1.08;0.93;;;13.40;99.90;;;;;;4996461;28;94963;-35
2022/05/30 08:27:45;;;;;;;1.30;1.20;;;13.40;99.90;;;;;;4996761;28;94503;-33
2022/05/30 08:30:13;;;;;;;3.30;0.88;;;13.40;99.90;;;;;;4996480;28;93272;-36
2022/05/30 08:32:42;;;;;;;1.33;1.00;;;13.20;99.90;;;;;;4995556;28;94331;-33
2022/05/30 08:35:09;;;;;;;2.13;0.98;;;13.20;99.90;;;;;;4995357;28;97719;-36
2022/05/30 08:37:37;;;;;;;3.40;1.13;;;13.20;99.90;;;;;;4996224;28;95577;-36
2022/05/30 08:43:15;;;;;;;0.77;0.77;;;13.10;99.90;;;;;;4996214;28;93348;-36
2022/05/30 08:45:44;;;;;;;1.65;1.02;;;12.90;99.90;;;;;;4995260;28;95195;-33
2022/05/30 08:48:15;;;;;;;1.92;1.17;;;12.80;99.90;;;;;;4995880;28;94855;-36
2022/05/30 08:50:51;;;;;;;0.85;0.85;;;13.00;99.90;;;;;;4996012;28;94357;-33
2022/05/30 08:53:26;;;;;;;0.82;0.80;;;14.00;99.90;;;;;;4995517;28;92423;-35
2022/05/30 08:56:06;;;;;;;1.60;0.88;;;14.80;99.90;;;;;;4995192;28;95691;-35
2022/05/30 08:59:04;;;;;;;1.90;0.90;;;15.30;99.90;;;;;;4994687;28;93959;-34
2022/05/30 09:01:39;;;;;;;3.50;1.50;;;15.80;99.90;;;;;;4995911;28;95104;-33
2022/05/30 09:04:21;;;;;;;0.65;0.50;;;15.80;99.90;;;;;;4995817;28;94480;-33
2022/05/30 09:06:56;;;;;;;1.90;0.90;;;15.30;99.90;;;;;;4995150;28;94398;-35
2022/05/30 09:09:44;;;;;;;0.70;0.70;;;15.00;99.90;;;;;;4995526;28;95579;-35
2022/05/30 09:12:28;;;;;;;1.88;1.00;;;14.60;99.90;;;;;;4995486;28;95286;-34
2022/05/30 09:15:08;;;;;;;3.60;1.02;;;14.20;99.90;;;;;;4983407;28;93528;-33
2022/05/30 09:17:37;;;;;;;0.70;0.57;;;13.60;99.90;;;;;;4995569;28;95299;-33
2022/05/30 09:20:08;;;;;;;1.95;1.20;;;13.10;99.90;;;;;;4996185;28;94936;-36
2022/05/30 09:22:38;;;;;;;0.88;0.88;;;12.80;99.90;;;;;;4996261;28;93079;-36
2022/05/30 09:27:48;;;;;;;0.70;0.60;;;12.50;99.90;;;;;;4994363;28;96041;-34
2022/05/30 09:30:20;;;;;;;1.15;0.70;;;12.30;99.90;;;;;;4995161;28;95466;-37
2022/05/30 09:33:28;;;;;;;0.63;0.60;;;12.00;99.90;;;;;;4994771;28;93025;-35
2022/05/30 09:36:19;;;;;;;1.02;0.90;;;11.80;99.90;;;;;;4951532;28;92472;-33
2022/05/30 09:38:50;;;;;;;0.90;0.73;;;11.80;99.90;;;;;;4982386;28;93486;-34
2022/05/30 09:41:22;;;;;;;1.33;0.90;;;11.60;99.90;;;;;;4995011;28;94691;-35
2022/05/30 09:43:58;;;;;;;1.10;1.00;;;11.30;99.90;;;;;;4994855;28;93547;-34
2022/05/30 09:46:58;;;;;;;0.80;0.73;;;11.20;99.90;;;;;;4995165;28;93341;-34
2022/05/30 09:49:27;;;;;;;2.35;0.90;;;11.20;99.90;;;;;;4987359;28;93919;-36
2022/05/30 09:51:59;;;;;;;;;;;11.30;99.90;;;;;;4994444;28;94607;-37
2022/05/30 09:54:24;;;;;;;0.68;0.68;;;11.30;99.90;;;;;;4995915;28;93495;-33
2022/05/30 09:56:54;;;;;;;1.23;1.02;;;11.30;99.90;;;;;;4994786;28;92209;-35
2022/05/30 09:59:41;;;;;;;3.22;1.10;;;11.50;99.90;;;;;;4995144;28;96301;-33
2022/05/30 10:02:23;;;;;;;1.20;0.82;;;11.50;99.90;;;;;;4995267;28;94864;-35
2022/05/30 10:04:56;;;;;;;1.98;0.90;;;11.50;99.90;;;;;;4994813;28;94487;-38
2022/05/30 10:07:22;;;;;;;3.95;1.02;;;11.80;99.90;;;;;;4994706;28;92432;-37
2022/05/30 10:10:03;;;;;;;1.17;0.93;;;11.80;99.90;;;;;;4994146;28;95709;-35
2022/05/30 10:12:36;;;;;;;1.25;1.13;;;12.10;99.90;;;;;;4994538;28;94488;-34
2022/05/30 10:15:24;;;;;;;1.08;0.90;;;12.40;99.90;;;;;;4995037;28;94467;-35
2022/05/30 10:17:51;;;;;;;1.30;1.10;;;12.70;99.90;;;;;;4994070;28;92929;-32
2022/05/30 10:20:32;;;;;;;2.37;0.80;;;12.80;99.90;;;;;;4975977;28;96071;-33
2022/05/30 10:29:46;;;;;;;0.68;0.68;;;12.50;99.90;;;;;;4994682;28;94754;-33
2022/05/30 10:32:26;;;;;;;1.00;0.60;;;12.90;99.90;;;;;;4994340;28;94683;-34
2022/05/30 10:35:21;;;;;;;0.50;0.50;;;13.00;99.90;;;;;;4993956;28;94322;-35
2022/05/30 10:38:11;;;;;;;3.40;0.50;;;12.90;99.90;;;;;;4993875;28;95460;-35
2022/05/30 10:41:09;;;;;;;0.40;0.40;;;13.40;99.90;;;;;;4995107;28;93195;-34
2022/05/30 10:43:34;;;;;;;;;;;14.00;99.90;;;;;;4993166;28;94777;-36
2022/05/30 10:46:07;;;;;;;0.40;0.40;;;14.10;99.90;;;;;;4994620;28;94032;-32
2022/05/30 10:48:38;;;;;;;5.57;0.60;;;13.80;99.90;;;;;;4994252;28;94094;-34
2022/05/30 10:51:22;;;;;;;0.70;0.65;;;13.30;99.90;;;;;;4994040;28;92962;-36
2022/05/30 10:54:10;;;;;;;0.60;0.60;;;12.70;99.90;;;;;;4993413;28;94563;-36
2022/05/30 10:56:47;;;;;;;2.15;0.70;;;12.60;99.90;;;;;;4993120;28;94799;-35
2022/05/30 10:59:40;;;;;;;0.82;0.75;;;12.50;99.90;;;;;;4994106;28;92550;-35
2022/05/30 11:02:12;;;;;;;0.50;0.50;;;12.50;99.90;;;;;;4994049;28;94546;-34
2022/05/30 11:05:06;;;;;;;0.88;0.70;;;12.40;99.90;;;;;;4994238;28;94852;-34
2022/05/30 11:08:09;;;;;;;0.60;0.60;;;12.40;99.90;;;;;;4994005;28;93636;-36
2022/05/30 11:10:59;;;;;;;1.10;0.63;;;12.40;99.90;;;;;;4993889;28;94062;-36
2022/05/30 11:13:50;;;;;;;1.30;0.70;;;12.40;99.90;;;;;;4975365;28;93767;-34
2022/05/30 11:16:40;;;;;;;3.65;0.80;;;12.50;99.90;;;;;;4993167;28;95952;-33
2022/05/30 11:19:21;;;;;;;1.30;0.75;;;12.60;99.90;;;;;;4994064;28;94653;-33
2022/05/30 11:21:49;;;;;;;0.60;0.55;;;12.70;99.90;;;;;;4995195;28;93818;-33
2022/05/30 11:24:15;;;;;;;1.05;0.70;;;12.70;99.90;;;;;;4990645;28;93010;-34
2022/05/30 11:27:18;;;;;;;0.60;0.60;;;13.00;99.90;;;;;;4988528;28;95442;-33
2022/05/30 11:30:05;;;;;;;1.05;0.70;;;13.40;99.90;;;;;;4996249;28;94560;-36
2022/05/30 11:32:36;;;;;;;0.77;0.63;;;13.60;99.90;;;;;;4996556;28;94095;-37
2022/05/30 11:35:32;;;;;;;1.35;0.70;;;13.90;99.90;;;;;;4996678;28;92482;-36
2022/05/30 11:37:58;;;;;;;0.77;0.70;;;13.90;99.90;;;;;;4994057;28;94628;-35
2022/05/30 11:40:49;;;;;;;0.73;0.73;;;14.30;99.90;;;;;;4996089;28;94398;-36
2022/05/30 11:43:33;;;;;;;0.60;0.60;;;14.30;99.90;;;;;;4995865;28;94423;-36
2022/05/30 11:46:08;;;;;;;0.73;0.52;;;14.20;99.90;;;;;;4995947;28;93457;-34
2022/05/30 11:48:58;;;;;;;0.68;0.68;;;13.90;99.90;;;;;;4996445;28;94774;-37
2022/05/30 11:51:45;;;;;;;0.50;0.50;;;14.10;99.90;;;;;;4995925;28;95237;-32
2022/05/30 11:54:29;;;;;;;1.65;0.55;;;14.00;99.90;;;;;;4996626;28;93161;-36
2022/05/30 11:57:24;;;;;;;0.50;0.50;;;14.20;99.90;;;;;;4984286;28;93551;-35
2022/05/30 12:00:08;;;;;;;0.95;0.75;;;14.20;99.90;;;;;;4995082;28;94680;-39
2022/05/30 12:02:43;;;;;;;1.10;0.90;;;13.90;99.90;;;;;;4996432;28;94715;-33
2022/05/30 12:05:59;;;;;;;3.25;0.80;;;13.70;99.90;;;;;;4996553;28;94530;-36
2022/05/30 12:08:48;;;;;;;1.92;1.25;;;13.80;99.90;;;;;;4923805;28;93727;-35
2022/05/30 12:11:38;;;;;;;1.88;1.00;;;13.90;99.90;;;;;;4932227;28;95650;-34
2022/05/30 12:14:15;;;;;;;0.85;0.55;;;13.70;99.90;;;;;;4981166;28;96196;-33
2022/05/30 12:17:22;;;;;;;0.83;0.57;;;13.80;99.90;;;;;;4996377;28;92200;-35
2022/05/30 12:25:34;;;;;;;0.65;0.65;;;13.70;99.90;;;;;;4995332;28;94571;-36
2022/05/30 12:28:01;;;;;;;1.50;0.60;;;13.80;99.90;;;;;;4996271;28;92464;-34
2022/05/30 12:30:36;;;;;;;1.00;0.90;;;13.70;99.90;;;;;;4995281;28;93359;-35
2022/05/30 12:33:21;;;;;;;2.53;1.23;;;13.50;99.90;;;;;;4995215;28;94860;-35
2022/05/30 12:36:07;;;;;;;1.95;1.00;;;13.40;99.90;;;;;;4996004;28;94523;-35
2022/05/30 12:38:53;;;;;;;1.98;1.13;;;13.10;99.90;;;;;;4995257;28;94235;-34
2022/05/30 12:41:26;;;;;;;1.00;0.88;;;13.00;99.90;;;;;;4990424;28;94345;-37
2022/05/30 12:43:52;;;;;;;0.98;0.80;;;13.20;99.90;;;;;;4995205;28;96202;-33
2022/05/30 12:46:21;;;;;;;0.80;0.80;;;13.00;99.90;;;;;;4995563;28;94523;-33
2022/05/30 12:49:13;;;;;;;1.08;0.80;;;13.10;99.90;;;;;;4995950;28;93108;-37
2022/05/30 12:51:38;;;;;;;1.40;1.30;;;13.30;99.90;;;;;;5040638;22;93334;-36
2022/05/30 12:54:04;;;;;;;0.80;0.80;;;13.50;99.90;;;;;;4995769;28;94507;-34
2022/05/30 12:56:43;;;;;;;1.38;1.33;;;13.40;99.90;;;;;;4996236;28;96076;-32
2022/05/30 12:59:11;;;;;;;1.13;1.00;;;13.70;99.90;;;;;;4996347;28;92808;-33
2022/05/30 13:01:42;;;;;;;;;;;13.70;99.90;;;;;;4995919;28;92965;-36
2022/05/30 13:04:25;;;;;;;1.60;1.42;;;13.60;99.90;;;;;;4996293;28;95611;-32
2022/05/30 13:07:12;;;;;;;2.33;1.13;;;13.60;99.90;;;;;;4995258;28;95698;-34
2022/05/30 13:09:40;;;;;;;1.33;0.88;;;13.80;99.90;;;;;;4995573;28;93421;-36
2022/05/30 13:12:12;;;;;;;1.33;0.98;;;13.70;99.90;;;;;;4995954;28;94886;-36
2022/05/30 13:14:48;;;;;;;1.17;1.08;;;13.70;99.90;;;;;;4994577;28;95463;-37
2022/05/30 13:17:26;;;;;;;2.35;1.00;;;13.60;99.90;;;;;;4995414;28;95402;-35
2022/05/30 13:19:58;;;;;;;0.90;0.90;;;13.70;99.90;;;;;;4995286;28;93848;-34
2022/05/30 13:22:54;;;;;;;5.65;1.27;;;13.60;99.90;;;;;;4995649;28;93306;-35
2022/05/30 13:25:26;;;;;;;5.43;1.25;;;13.60;99.90;;;;;;4975703;28;94781;-34
2022/05/30 13:27:52;;;;;;;2.72;2.53;;;13.90;99.90;;;;;;4995228;28;94442;-34
2022/05/30 13:30:25;;;;;;;1.10;1.10;;;13.70;99.90;;;;;;4977322;28;93526;-36
2022/05/30 13:32:51;;;;;;;1.10;1.00;;;13.60;99.90;;;;;;4994366;28;93280;-35
2022/05/30 13:35:19;;;;;;;1.55;0.82;;;13.50;99.90;;;;;;4994731;28;93832;-34
2022/05/30 13:37:49;;;;;;;0.85;0.85;;;13.70;99.90;;;;;;4993914;28;94765;-34
2022/05/30 13:40:18;;;;;;;1.38;1.05;;;13.80;99.90;;;;;;4995633;28;93366;-36